Time;durP1;ratioP1;P1;durP2;ratioP2;P2;SDS_P1;SDS_P2;PMS_P1;PMS_P2;Temp;Humidity;BMP_temperature;BMP_pressure;BME280_temperature;BME280_humidity;BME280_pressure;Samples;Min_cycle;Max_cycle;Signal;HPM_P1;HPM_P2
2022/03/03 00:01:39;;;;;;;74.50;11.60;;;;;;;;;;5013752;28;20188;-56
2022/03/03 00:04:06;;;;;;;64.83;10.00;;;;;;;;;;5007755;28;20675;-56
2022/03/03 00:06:32;;;;;;;59.30;9.40;;;;;;;;;;5005708;28;20185;-55
2022/03/03 00:08:58;;;;;;;52.90;8.33;;;;;;;;;;5007378;28;20549;-56
2022/03/03 00:11:24;;;;;;;105.80;15.93;;;;;;;;;;5005038;28;20894;-55
2022/03/03 00:13:50;;;;;;;49.00;7.53;;;;;;;;;;5008560;28;20192;-56
2022/03/03 00:16:16;;;;;;;59.30;9.07;;;;;;;;;;5015390;28;20632;-56
2022/03/03 00:18:42;;;;;;;80.13;12.20;;;;;;;;;;5015593;28;20188;-55
2022/03/03 00:21:08;;;;;;;73.67;11.00;;;;;;;;;;5012003;28;20239;-56
2022/03/03 00:23:34;;;;;;;87.20;13.87;;;;;;;;;;5007622;28;20200;-56
2022/03/03 00:26:00;;;;;;;61.63;9.40;;;;;;;;;;5006993;28;20204;-57
2022/03/03 00:28:26;;;;;;;77.07;11.83;;;;;;;;;;5004661;28;20255;-56
2022/03/03 00:30:52;;;;;;;70.17;10.80;;;;;;;;;;5008228;28;20486;-56
2022/03/03 00:33:18;;;;;;;62.90;9.43;;;;;;;;;;5012672;28;20199;-56
2022/03/03 00:35:44;;;;;;;94.40;14.43;;;;;;;;;;5009997;28;20196;-56
2022/03/03 00:38:10;;;;;;;42.20;6.63;;;;;;;;;;5003168;28;20233;-56
2022/03/03 00:40:36;;;;;;;46.63;6.90;;;;;;;;;;5005607;28;20177;-55
2022/03/03 00:43:04;;;;;;;55.27;8.30;;;;;;;;;;5006064;28;20612;-56
2022/03/03 00:45:30;;;;;;;79.10;11.97;;;;;;;;;;5009572;28;20270;-56
2022/03/03 00:47:56;;;;;;;41.67;6.33;;;;;;;;;;5005668;28;20641;-55
2022/03/03 00:50:22;;;;;;;86.40;13.03;;;;;;;;;;5004778;28;20185;-55
2022/03/03 00:52:48;;;;;;;83.83;13.03;;;;;;;;;;5007739;28;20199;-55
2022/03/03 00:55:13;;;;;;;81.83;12.57;;;;;;;;;;5012107;28;20211;-56
2022/03/03 00:57:39;;;;;;;54.17;8.50;;;;;;;;;;4997736;28;20652;-56
2022/03/03 01:00:07;;;;;;;56.23;8.40;;;;;;;;;;5014590;28;20198;-55
2022/03/03 01:02:34;;;;;;;58.37;8.97;;;;;;;;;;5011125;28;20556;-55
2022/03/03 01:05:00;;;;;;;109.30;16.90;;;;;;;;;;4999903;28;20486;-56
2022/03/03 01:07:26;;;;;;;91.53;13.47;;;;;;;;;;5007820;28;20202;-55
2022/03/03 01:09:52;;;;;;;65.40;9.83;;;;;;;;;;5010150;28;20185;-55
2022/03/03 01:12:18;;;;;;;98.50;14.80;;;;;;;;;;5001245;28;20176;-55
2022/03/03 01:14:44;;;;;;;44.50;6.80;;;;;;;;;;5000384;28;20205;-55
2022/03/03 01:17:10;;;;;;;41.30;6.10;;;;;;;;;;5016156;28;20189;-56
2022/03/03 01:19:36;;;;;;;89.10;12.77;;;;;;;;;;5007227;28;20518;-55
2022/03/03 01:22:02;;;;;;;73.57;11.10;;;;;;;;;;4984638;28;20648;-55
2022/03/03 01:24:28;;;;;;;60.03;9.00;;;;;;;;;;5013719;28;20220;-55
2022/03/03 01:26:54;;;;;;;103.90;15.93;;;;;;;;;;5001082;28;20242;-55
2022/03/03 01:29:20;;;;;;;41.27;6.17;;;;;;;;;;5016995;28;20184;-56
2022/03/03 01:31:46;;;;;;;47.70;7.27;;;;;;;;;;5017623;28;20184;-55
2022/03/03 01:34:12;;;;;;;62.50;9.60;;;;;;;;;;5004922;28;20533;-55
2022/03/03 01:36:38;;;;;;;23.57;4.00;;;;;;;;;;5011462;28;20398;-56
2022/03/03 01:39:04;;;;;;;47.30;7.53;;;;;;;;;;5006742;28;20192;-56
2022/03/03 01:41:30;;;;;;;98.50;15.03;;;;;;;;;;5002583;28;20188;-55
2022/03/03 01:43:56;;;;;;;86.40;12.53;;;;;;;;;;5003554;28;20380;-55
2022/03/03 01:46:22;;;;;;;67.70;10.03;;;;;;;;;;5011187;28;20546;-55
2022/03/03 01:48:48;;;;;;;67.90;10.27;;;;;;;;;;5005980;28;20199;-55
2022/03/03 01:51:14;;;;;;;108.23;16.37;;;;;;;;;;5003086;28;20192;-56
2022/03/03 01:53:40;;;;;;;71.43;10.70;;;;;;;;;;5007565;28;20454;-55
2022/03/03 01:56:07;;;;;;;66.33;9.40;;;;;;;;;;5014868;28;20782;-55
2022/03/03 01:58:33;;;;;;;46.80;7.50;;;;;;;;;;5012480;28;20828;-55
2022/03/03 02:00:59;;;;;;;42.93;6.90;;;;;;;;;;5007087;28;20188;-55
2022/03/03 02:03:25;;;;;;;93.07;14.30;;;;;;;;;;5011438;28;20180;-56
2022/03/03 02:05:52;;;;;;;114.53;16.93;;;;;;;;;;5005162;28;20200;-55
2022/03/03 02:08:18;;;;;;;67.57;10.27;;;;;;;;;;5004982;28;20197;-55
2022/03/03 02:10:44;;;;;;;62.17;9.37;;;;;;;;;;5006202;28;20637;-55
2022/03/03 02:13:10;;;;;;;48.57;7.30;;;;;;;;;;5005114;28;20187;-55
2022/03/03 02:15:36;;;;;;;85.50;12.60;;;;;;;;;;5010812;28;20219;-55
2022/03/03 02:18:01;;;;;;;44.73;6.93;;;;;;;;;;5013232;28;20200;-56
2022/03/03 02:20:28;;;;;;;41.77;6.33;;;;;;;;;;5016083;28;20188;-56
2022/03/03 02:22:55;;;;;;;75.33;11.53;;;;;;;;;;5027073;22;20353;-55
2022/03/03 02:25:22;;;;;;;48.23;7.07;;;;;;;;;;5007782;28;20220;-54
2022/03/03 02:27:48;;;;;;;60.77;9.37;;;;;;;;;;5026657;28;20253;-54
2022/03/03 02:30:15;;;;;;;40.43;6.23;;;;;;;;;;5039025;28;20719;-54
2022/03/03 02:32:41;;;;;;;41.53;6.27;;;;;;;;;;5023816;28;20572;-55
2022/03/03 02:35:07;;;;;;;62.17;9.60;;;;;;;;;;5027914;28;20230;-54
2022/03/03 02:37:34;;;;;;;39.10;6.00;;;;;;;;;;5015540;28;20184;-54
2022/03/03 02:40:00;;;;;;;46.93;6.83;;;;;;;;;;5021170;28;20408;-54
2022/03/03 02:42:26;;;;;;;47.77;7.10;;;;;;;;;;5028225;28;20218;-54
2022/03/03 02:44:52;;;;;;;59.00;9.13;;;;;;;;;;5029609;28;20728;-54
2022/03/03 02:47:18;;;;;;;46.60;7.23;;;;;;;;;;5020207;28;20647;-54
2022/03/03 02:49:44;;;;;;;90.93;14.03;;;;;;;;;;5022623;28;20194;-55
2022/03/03 02:52:10;;;;;;;50.73;7.70;;;;;;;;;;5027550;28;20316;-54
2022/03/03 02:54:36;;;;;;;40.30;6.10;;;;;;;;;;5032902;28;20211;-54
2022/03/03 03:00:06;;;;;;;62.87;9.73;;;;;;;;;;4935903;28;20199;-54
2022/03/03 03:02:32;;;;;;;58.23;9.30;;;;;;;;;;4934586;28;20217;-54
2022/03/03 03:04:58;;;;;;;75.13;11.67;;;;;;;;;;4968655;28;20603;-54
2022/03/03 03:07:24;;;;;;;60.73;9.20;;;;;;;;;;5027961;28;22102;-54
2022/03/03 03:09:50;;;;;;;49.83;7.43;;;;;;;;;;5025134;28;20255;-54
2022/03/03 03:12:16;;;;;;;53.17;7.93;;;;;;;;;;5025820;28;20204;-54
2022/03/03 03:14:42;;;;;;;;;;;;;;;;;;5027379;28;20210;-54
2022/03/03 03:17:08;;;;;;;81.60;12.10;;;;;;;;;;5025360;28;19983;-54
2022/03/03 03:19:34;;;;;;;73.13;11.27;;;;;;;;;;5024782;28;20212;-54
2022/03/03 03:21:59;;;;;;;69.60;10.63;;;;;;;;;;5017026;28;20196;-55
2022/03/03 03:24:25;;;;;;;63.17;9.70;;;;;;;;;;5020426;28;20262;-55
2022/03/03 03:26:51;;;;;;;66.70;10.53;;;;;;;;;;5031050;28;20591;-54
2022/03/03 03:29:17;;;;;;;74.03;10.90;;;;;;;;;;5026252;28;20180;-55
2022/03/03 03:31:43;;;;;;;52.80;8.13;;;;;;;;;;5024039;28;20206;-54
2022/03/03 03:34:09;;;;;;;63.40;9.70;;;;;;;;;;5023822;28;21186;-54
2022/03/03 03:36:35;;;;;;;60.30;9.17;;;;;;;;;;5022744;28;20175;-55
2022/03/03 03:39:01;;;;;;;61.67;9.93;;;;;;;;;;5032844;28;20184;-54
2022/03/03 03:41:27;;;;;;;72.67;11.40;;;;;;;;;;5018244;28;20659;-54
2022/03/03 03:43:53;;;;;;;68.20;10.53;;;;;;;;;;5025876;28;20286;-54
2022/03/03 03:46:19;;;;;;;61.50;9.37;;;;;;;;;;5025899;28;20405;-55
2022/03/03 03:48:45;;;;;;;48.87;7.67;;;;;;;;;;5026865;28;20179;-54
2022/03/03 03:51:11;;;;;;;39.87;6.60;;;;;;;;;;5033065;28;20263;-54
2022/03/03 03:53:37;;;;;;;42.63;6.53;;;;;;;;;;5030045;28;20401;-55
2022/03/03 03:56:03;;;;;;;75.73;11.33;;;;;;;;;;5015811;28;20671;-55
2022/03/03 03:58:28;;;;;;;55.00;8.43;;;;;;;;;;5016768;28;20266;-54
2022/03/03 04:00:54;;;;;;;92.47;14.40;;;;;;;;;;5024292;28;20229;-54
2022/03/03 04:03:20;;;;;;;60.93;9.40;;;;;;;;;;5026687;28;20267;-54
2022/03/03 04:05:46;;;;;;;40.90;6.30;;;;;;;;;;5025152;28;20619;-54
2022/03/03 04:08:12;;;;;;;78.10;12.13;;;;;;;;;;5024137;28;20191;-54
2022/03/03 04:10:38;;;;;;;43.87;6.63;;;;;;;;;;5023484;28;20629;-54
2022/03/03 04:13:04;;;;;;;73.00;10.90;;;;;;;;;;5027345;28;20286;-54
2022/03/03 04:15:30;;;;;;;74.77;11.50;;;;;;;;;;5027307;28;20254;-54
2022/03/03 04:17:56;;;;;;;77.90;12.17;;;;;;;;;;5027318;28;20200;-54
2022/03/03 04:20:23;;;;;;;60.30;9.37;;;;;;;;;;5026324;28;20660;-54
2022/03/03 04:22:48;;;;;;;65.33;10.50;;;;;;;;;;5022607;28;20736;-54
2022/03/03 04:25:14;;;;;;;73.80;10.97;;;;;;;;;;5025216;28;20846;-54
2022/03/03 04:27:40;;;;;;;73.47;11.63;;;;;;;;;;5024212;28;20194;-54
2022/03/03 04:30:10;;;;;;;85.80;13.43;;;;;;;;;;5021834;28;20315;-54
2022/03/03 04:32:37;;;;;;;80.83;12.43;;;;;;;;;;5022163;28;20180;-54
2022/03/03 04:35:03;;;;;;;69.20;10.93;;;;;;;;;;5024321;28;20638;-54
2022/03/03 04:37:29;;;;;;;90.33;14.03;;;;;;;;;;5019497;28;20602;-54
2022/03/03 04:39:55;;;;;;;40.97;6.97;;;;;;;;;;5012014;28;20327;-54
2022/03/03 04:42:21;;;;;;;49.70;7.60;;;;;;;;;;5026378;28;20187;-55
2022/03/03 04:44:47;;;;;;;41.10;6.50;;;;;;;;;;5035208;28;20215;-55
2022/03/03 04:47:13;;;;;;;75.43;11.93;;;;;;;;;;5020842;28;20188;-54
2022/03/03 04:49:39;;;;;;;66.27;10.37;;;;;;;;;;5022383;28;20185;-55
2022/03/03 04:52:05;;;;;;;71.87;11.30;;;;;;;;;;5021739;28;20175;-55
2022/03/03 04:54:32;;;;;;;55.60;8.40;;;;;;;;;;5026648;28;20204;-55
2022/03/03 04:56:57;;;;;;;66.77;10.27;;;;;;;;;;5009300;28;20188;-55
2022/03/03 04:59:24;;;;;;;58.70;9.40;;;;;;;;;;5028529;28;20189;-55
2022/03/03 05:01:51;;;;;;;30.10;4.90;;;;;;;;;;5026462;28;20187;-55
2022/03/03 05:04:17;;;;;;;52.17;8.13;;;;;;;;;;5020474;28;20218;-55
2022/03/03 05:06:43;;;;;;;48.97;7.60;;;;;;;;;;5021104;28;20517;-55
2022/03/03 05:09:09;;;;;;;62.43;9.47;;;;;;;;;;5027455;28;20187;-55
2022/03/03 05:11:35;;;;;;;59.33;9.13;;;;;;;;;;5027069;28;20332;-55
2022/03/03 05:14:00;;;;;;;72.27;10.87;;;;;;;;;;5024635;28;20380;-55
2022/03/03 05:16:26;;;;;;;90.97;13.83;;;;;;;;;;5027658;28;20188;-55
2022/03/03 05:18:52;;;;;;;69.47;11.23;;;;;;;;;;5019745;28;20594;-55
2022/03/03 05:21:18;;;;;;;76.50;11.27;;;;;;;;;;5012780;28;20223;-54
2022/03/03 05:23:44;;;;;;;38.70;5.80;;;;;;;;;;5022289;28;22154;-55
2022/03/03 05:26:10;;;;;;;107.27;16.67;;;;;;;;;;5022603;28;20233;-55
2022/03/03 05:28:36;;;;;;;71.00;10.60;;;;;;;;;;5021339;28;20180;-54
2022/03/03 05:31:02;;;;;;;53.77;8.40;;;;;;;;;;5024858;28;20217;-54
2022/03/03 05:33:29;;;;;;;69.80;10.93;;;;;;;;;;5003419;28;20711;-54
2022/03/03 05:35:59;;;;;;;71.73;10.87;;;;;;;;;;5026801;28;21036;-54
2022/03/03 05:38:27;;;;;;;63.80;9.73;;;;;;;;;;5016114;28;20188;-54
2022/03/03 05:40:53;;;;;;;61.23;9.43;;;;;;;;;;5024124;28;20191;-54
2022/03/03 05:43:20;;;;;;;75.07;11.40;;;;;;;;;;5018846;28;20555;-55
2022/03/03 05:45:47;;;;;;;51.80;7.70;;;;;;;;;;5024681;28;20215;-56
2022/03/03 05:48:17;;;;;;;58.67;8.93;;;;;;;;;;5020042;28;20192;-55
2022/03/03 05:50:42;;;;;;;71.17;10.40;;;;;;;;;;5019227;28;20191;-54
2022/03/03 05:53:08;;;;;;;60.70;9.03;;;;;;;;;;5022741;28;20540;-55
2022/03/03 05:55:38;;;;;;;37.33;6.03;;;;;;;;;;5031835;28;20671;-55
2022/03/03 05:58:06;;;;;;;64.20;9.73;;;;;;;;;;5016667;28;20184;-55
2022/03/03 06:00:33;;;;;;;58.63;8.93;;;;;;;;;;5030955;28;20671;-54
2022/03/03 06:02:59;;;;;;;95.70;14.53;;;;;;;;;;5018101;28;20671;-54
2022/03/03 06:05:27;;;;;;;90.80;13.53;;;;;;;;;;5025685;28;20243;-54
2022/03/03 06:07:59;;;;;;;39.20;6.10;;;;;;;;;;5028164;28;20215;-56
2022/03/03 06:10:25;;;;;;;42.47;6.37;;;;;;;;;;5022204;28;20536;-55
2022/03/03 06:13:11;;;;;;;46.17;6.80;;;;;;;;;;5028286;28;20242;-56
2022/03/03 06:15:38;;;;;;;48.97;7.53;;;;;;;;;;5033338;28;20254;-55
2022/03/03 06:18:04;;;;;;;90.10;13.67;;;;;;;;;;5013190;28;20963;-55
2022/03/03 06:20:31;;;;;;;82.17;12.40;;;;;;;;;;5019430;28;20184;-57
2022/03/03 06:22:57;;;;;;;55.33;8.30;;;;;;;;;;5028477;28;20234;-55
2022/03/03 06:25:23;;;;;;;73.70;11.10;;;;;;;;;;5029007;28;20786;-56
2022/03/03 06:27:49;;;;;;;134.80;20.07;;;;;;;;;;5010973;28;20187;-57
2022/03/03 06:30:15;;;;;;;47.67;6.93;;;;;;;;;;5031142;28;20226;-56
2022/03/03 06:32:41;;;;;;;58.90;8.77;;;;;;;;;;5035292;28;20735;-58
2022/03/03 06:35:08;;;;;;;59.33;9.07;;;;;;;;;;5046739;28;20211;-57
2022/03/03 06:37:34;;;;;;;52.13;7.67;;;;;;;;;;5011738;28;20188;-58
2022/03/03 06:40:00;;;;;;;62.63;9.90;;;;;;;;;;5026947;28;20195;-57
2022/03/03 06:42:26;;;;;;;82.63;11.97;;;;;;;;;;5015919;28;20637;-57
2022/03/03 06:44:53;;;;;;;81.33;11.77;;;;;;;;;;5022897;28;20215;-59
2022/03/03 06:47:20;;;;;;;106.70;15.67;;;;;;;;;;5023301;28;20195;-58
2022/03/03 06:49:47;;;;;;;79.53;11.97;;;;;;;;;;5000514;28;20342;-58
2022/03/03 06:52:14;;;;;;;82.87;12.57;;;;;;;;;;5019414;28;20186;-58
2022/03/03 06:54:43;;;;;;;75.17;11.23;;;;;;;;;;5020062;28;20204;-58
2022/03/03 06:57:10;;;;;;;100.33;15.43;;;;;;;;;;5029379;28;20273;-58
2022/03/03 06:59:38;;;;;;;53.57;7.80;;;;;;;;;;5032642;28;20235;-57
2022/03/03 07:02:04;;;;;;;56.07;8.33;;;;;;;;;;5015840;28;20594;-58
2022/03/03 07:04:32;;;;;;;105.13;15.70;;;;;;;;;;5018085;28;20206;-58
2022/03/03 07:06:59;;;;;;;100.97;14.70;;;;;;;;;;5004468;28;20352;-58
2022/03/03 07:09:25;;;;;;;77.97;11.43;;;;;;;;;;5029171;28;20179;-58
2022/03/03 07:11:51;;;;;;;110.10;16.40;;;;;;;;;;5023509;28;20233;-59
2022/03/03 07:14:18;;;;;;;61.03;9.33;;;;;;;;;;5023014;28;20885;-57
2022/03/03 07:16:45;;;;;;;59.27;8.47;;;;;;;;;;5011715;28;20191;-57
2022/03/03 07:19:17;;;;;;;65.50;9.33;;;;;;;;;;5031270;28;20632;-57
2022/03/03 07:21:49;;;;;;;60.57;8.87;;;;;;;;;;5031250;28;20616;-57
2022/03/03 07:24:28;;;;;;;58.70;8.57;;;;;;;;;;5029106;28;20218;-53
2022/03/03 07:26:57;;;;;;;97.57;13.60;;;;;;;;;;5021685;28;20574;-54
2022/03/03 07:29:26;;;;;;;102.57;14.73;;;;;;;;;;5017730;28;20187;-54
2022/03/03 07:31:56;;;;;;;105.40;14.87;;;;;;;;;;5030066;28;20625;-54
2022/03/03 07:34:35;;;;;;;71.00;10.17;;;;;;;;;;5033205;28;20226;-54
2022/03/03 07:37:06;;;;;;;86.70;12.60;;;;;;;;;;5029225;28;20674;-54
2022/03/03 07:39:38;;;;;;;62.97;8.87;;;;;;;;;;5022774;28;20203;-54
2022/03/03 07:42:04;;;;;;;76.23;10.83;;;;;;;;;;5027434;28;20196;-54
2022/03/03 07:44:30;;;;;;;61.20;8.50;;;;;;;;;;5033173;28;20552;-58
2022/03/03 07:46:58;;;;;;;180.90;25.80;;;;;;;;;;5002949;28;20188;-56
2022/03/03 07:49:25;;;;;;;31.53;4.47;;;;;;;;;;5046077;28;20503;-58
2022/03/03 07:51:52;;;;;;;54.77;7.37;;;;;;;;;;5044185;28;20350;-59
2022/03/03 07:54:18;;;;;;;42.97;6.00;;;;;;;;;;5049760;28;20207;-58
2022/03/03 07:56:48;;;;;;;60.87;8.20;;;;;;;;;;5037143;28;20187;-57
2022/03/03 07:59:17;;;;;;;48.30;6.80;;;;;;;;;;5039168;28;20525;-58
2022/03/03 08:01:44;;;;;;;25.17;3.77;;;;;;;;;;5044278;28;20179;-57
2022/03/03 08:04:14;;;;;;;49.40;6.80;;;;;;;;;;5040991;28;20283;-58
2022/03/03 08:06:40;;;;;;;42.63;5.90;;;;;;;;;;5043539;28;20548;-58
2022/03/03 08:09:07;;;;;;;42.00;5.90;;;;;;;;;;5048863;28;20183;-57
2022/03/03 08:11:33;;;;;;;58.43;7.83;;;;;;;;;;5043932;28;20176;-54
2022/03/03 08:13:59;;;;;;;39.53;5.40;;;;;;;;;;5037228;28;20180;-54
2022/03/03 08:16:26;;;;;;;31.93;4.53;;;;;;;;;;5049184;28;20271;-55
2022/03/03 08:18:56;;;;;;;33.03;4.60;;;;;;;;;;5048368;28;20190;-56
2022/03/03 08:21:23;;;;;;;41.27;5.83;;;;;;;;;;5031152;28;20187;-58
2022/03/03 08:23:49;;;;;;;59.97;8.57;;;;;;;;;;5021611;28;20238;-58
2022/03/03 08:26:16;;;;;;;37.23;5.13;;;;;;;;;;5047906;28;20179;-57
2022/03/03 08:28:42;;;;;;;44.80;5.90;;;;;;;;;;5040651;28;20529;-58
2022/03/03 08:31:08;;;;;;;49.57;6.80;;;;;;;;;;5044600;28;20197;-58
2022/03/03 08:33:42;;;;;;;55.07;7.23;;;;;;;;;;5046328;28;20846;-58
2022/03/03 08:36:27;;;;;;;51.90;7.23;;;;;;;;;;5028098;28;20207;-58
2022/03/03 08:38:53;;;;;;;66.47;8.97;;;;;;;;;;5039226;28;20180;-57
2022/03/03 08:41:23;;;;;;;83.57;12.13;;;;;;;;;;5036476;28;20184;-58
2022/03/03 08:43:53;;;;;;;61.70;8.47;;;;;;;;;;5033684;28;20258;-58
2022/03/03 08:46:30;;;;;;;33.13;4.70;;;;;;;;;;5045396;28;20186;-58
2022/03/03 08:48:59;;;;;;;57.57;7.93;;;;;;;;;;5037648;28;20269;-58
2022/03/03 08:51:25;;;;;;;63.63;9.40;;;;;;;;;;5033910;28;20215;-56
2022/03/03 08:53:51;;;;;;;54.03;7.40;;;;;;;;;;5022346;28;20183;-57
2022/03/03 08:56:17;;;;;;;80.27;11.37;;;;;;;;;;5030531;28;20687;-57
2022/03/03 08:58:44;;;;;;;65.07;8.87;;;;;;;;;;5037574;28;20667;-56
2022/03/03 09:01:10;;;;;;;50.83;7.13;;;;;;;;;;5038912;28;20199;-57
2022/03/03 09:03:36;;;;;;;75.83;11.03;;;;;;;;;;5040700;28;20171;-57
2022/03/03 09:06:02;;;;;;;79.67;11.60;;;;;;;;;;5023561;28;20325;-58
2022/03/03 09:08:28;;;;;;;73.73;10.73;;;;;;;;;;5029086;28;20254;-58
2022/03/03 09:10:54;;;;;;;47.07;6.80;;;;;;;;;;5026848;28;20259;-58
2022/03/03 09:13:20;;;;;;;118.50;17.00;;;;;;;;;;5020509;28;20184;-59
2022/03/03 09:15:46;;;;;;;93.50;13.93;;;;;;;;;;5022905;28;20204;-59
2022/03/03 09:18:12;;;;;;;122.87;18.03;;;;;;;;;;5026185;28;20218;-59
2022/03/03 09:20:38;;;;;;;95.80;14.03;;;;;;;;;;5027422;28;20581;-58
2022/03/03 09:23:04;;;;;;;90.83;13.20;;;;;;;;;;5014126;28;20202;-58
2022/03/03 09:25:30;;;;;;;102.73;15.10;;;;;;;;;;5031346;28;20722;-58
2022/03/03 09:27:56;;;;;;;134.40;19.03;;;;;;;;;;5012999;28;20215;-57
2022/03/03 09:30:23;;;;;;;87.67;12.17;;;;;;;;;;5025548;28;20373;-58
2022/03/03 09:32:49;;;;;;;79.57;11.73;;;;;;;;;;5026617;28;20224;-58
2022/03/03 09:35:15;;;;;;;108.30;16.30;;;;;;;;;;5020482;28;20568;-57
2022/03/03 09:37:41;;;;;;;86.00;12.27;;;;;;;;;;5027153;28;22186;-58
2022/03/03 09:40:09;;;;;;;81.03;12.20;;;;;;;;;;5025948;28;20271;-58
2022/03/03 09:42:59;;;;;;;69.97;9.83;;;;;;;;;;5024200;28;20658;-58
2022/03/03 09:45:25;;;;;;;80.40;11.67;;;;;;;;;;4998894;28;20273;-57
2022/03/03 09:47:55;;;;;;;85.37;12.03;;;;;;;;;;5023848;28;20198;-58
2022/03/03 09:50:22;;;;;;;165.17;24.17;;;;;;;;;;5019266;28;20183;-58
2022/03/03 09:52:48;;;;;;;82.00;12.00;;;;;;;;;;5029281;28;20196;-57
2022/03/03 09:55:14;;;;;;;72.53;10.30;;;;;;;;;;5032857;28;20833;-57
2022/03/03 09:57:40;;;;;;;89.47;12.90;;;;;;;;;;5023186;28;20188;-57
2022/03/03 10:00:08;;;;;;;94.53;13.07;;;;;;;;;;5024626;28;20279;-57
2022/03/03 10:02:53;;;;;;;70.07;10.33;;;;;;;;;;5029698;28;20184;-57
2022/03/03 10:05:27;;;;;;;84.63;12.00;;;;;;;;;;5016301;28;20614;-58
2022/03/03 10:08:01;;;;;;;71.60;12.27;;;;;;;;;;5048233;22;20225;-55
2022/03/03 10:10:27;;;;;;;62.07;10.53;;;;;;;;;;5064899;28;20298;-55
2022/03/03 10:12:56;;;;;;;44.97;7.93;;;;;;;;;;5074424;28;20272;-54
2022/03/03 10:15:25;;;;;;;137.40;23.10;;;;;;;;;;5053378;28;20307;-55
2022/03/03 10:17:55;;;;;;;91.03;14.53;;;;;;;;;;5052243;28;20483;-54
2022/03/03 10:20:21;;;;;;;54.97;9.33;;;;;;;;;;5046510;28;20305;-55
2022/03/03 10:22:58;;;;;;;90.70;15.40;;;;;;;;;;5043914;28;20289;-55
2022/03/03 10:25:38;;;;;;;66.00;11.33;;;;;;;;;;5046523;28;20245;-54
2022/03/03 10:28:10;;;;;;;95.43;16.30;;;;;;;;;;5047628;28;20190;-55
2022/03/03 10:30:54;;;;;;;80.90;13.80;;;;;;;;;;5041191;28;20462;-54
2022/03/03 10:33:22;;;;;;;77.07;12.77;;;;;;;;;;5054315;28;20190;-55
2022/03/03 10:36:01;;;;;;;69.50;11.50;;;;;;;;;;5055254;28;20199;-55
2022/03/03 10:38:27;;;;;;;50.50;8.87;;;;;;;;;;5065087;28;20276;-55
2022/03/03 10:40:53;;;;;;;49.77;8.83;;;;;;;;;;5052931;28;20279;-56
2022/03/03 10:43:19;;;;;;;85.33;14.17;;;;;;;;;;5055394;28;20199;-54
2022/03/03 10:45:56;;;;;;;57.33;9.93;;;;;;;;;;5059692;28;20217;-55
2022/03/03 10:48:22;;;;;;;62.00;10.40;;;;;;;;;;5056462;28;20707;-54
2022/03/03 10:50:49;;;;;;;50.33;9.00;;;;;;;;;;5057632;28;20734;-55
2022/03/03 10:53:25;;;;;;;90.73;15.53;;;;;;;;;;5048063;28;20187;-54
2022/03/03 10:56:01;;;;;;;70.07;11.83;;;;;;;;;;5055102;28;20515;-54
2022/03/03 10:58:43;;;;;;;71.00;12.30;;;;;;;;;;5056389;28;20687;-54
2022/03/03 11:01:09;;;;;;;43.43;7.80;;;;;;;;;;5054018;28;20183;-55
2022/03/03 11:03:36;;;;;;;82.90;13.43;;;;;;;;;;5049221;28;20187;-55
2022/03/03 11:06:03;;;;;;;117.60;19.83;;;;;;;;;;5041629;28;20311;-54
2022/03/03 11:08:29;;;;;;;74.43;12.97;;;;;;;;;;5049861;28;20899;-55
2022/03/03 11:10:55;;;;;;;43.27;8.23;;;;;;;;;;5055133;28;20198;-54
2022/03/03 11:13:22;;;;;;;107.97;18.67;;;;;;;;;;5051345;28;20188;-55
2022/03/03 11:15:49;;;;;;;42.50;7.97;;;;;;;;;;5056986;28;20329;-55
2022/03/03 11:18:19;;;;;;;89.90;15.20;;;;;;;;;;5036682;28;20194;-54
2022/03/03 11:20:48;;;;;;;74.17;12.57;;;;;;;;;;5057316;28;20183;-54
2022/03/03 11:23:14;;;;;;;111.47;18.03;;;;;;;;;;5044741;28;20217;-55
2022/03/03 11:25:41;;;;;;;80.07;14.47;;;;;;;;;;5044312;28;22288;-54
2022/03/03 11:28:09;;;;;;;210.23;33.37;;;;;;;;;;5028513;28;20279;-54
2022/03/03 11:30:36;;;;;;;72.03;12.33;;;;;;;;;;5037971;28;20180;-54
2022/03/03 11:33:22;;;;;;;91.37;14.53;;;;;;;;;;5036154;28;20539;-53
2022/03/03 11:35:52;;;;;;;64.57;11.63;;;;;;;;;;5049295;28;20655;-55
2022/03/03 11:38:18;;;;;;;73.70;12.83;;;;;;;;;;5037274;28;20190;-53
2022/03/03 11:40:52;;;;;;;66.80;12.10;;;;;;;;;;5041871;28;20191;-53
2022/03/03 11:43:18;;;;;;;195.87;32.53;;;;;;;;;;5047945;28;20175;-53
2022/03/03 11:45:51;;;;;;;77.47;13.60;;;;;;;;;;5045556;28;20370;-54
2022/03/03 11:48:22;;;;;;;94.83;16.47;;;;;;;;;;5040586;28;20174;-54
2022/03/03 11:50:52;;;;;;;88.37;14.67;;;;;;;;;;5044882;28;20225;-54
2022/03/03 11:53:19;;;;;;;48.13;8.90;;;;;;;;;;5053651;28;20191;-54
2022/03/03 11:55:58;;;;;;;66.27;11.57;;;;;;;;;;5049314;28;20203;-54
2022/03/03 11:58:40;;;;;;;82.37;14.20;;;;;;;;;;5053008;28;20735;-54
2022/03/03 12:01:08;;;;;;;86.47;15.13;;;;;;;;;;5043817;28;20319;-54
2022/03/03 12:03:54;;;;;;;101.63;17.93;;;;;;;;;;5041149;28;20425;-55
2022/03/03 12:06:23;;;;;;;69.70;12.63;;;;;;;;;;5036341;28;20187;-53
2022/03/03 12:08:49;;;;;;;87.57;15.10;;;;;;;;;;5040983;28;20269;-54
2022/03/03 12:11:16;;;;;;;82.43;14.47;;;;;;;;;;5044696;28;20984;-55
2022/03/03 12:13:49;;;;;;;82.90;13.87;;;;;;;;;;5046809;28;20266;-54
2022/03/03 12:16:22;;;;;;;73.37;12.90;;;;;;;;;;5045465;28;20187;-54
2022/03/03 12:19:08;;;;;;;80.57;14.07;;;;;;;;;;5042136;28;20186;-54
2022/03/03 12:21:48;;;;;;;90.10;15.67;;;;;;;;;;5039535;28;20285;-55
2022/03/03 12:24:14;;;;;;;103.43;18.27;;;;;;;;;;5043829;28;20724;-55
2022/03/03 12:26:55;;;;;;;82.77;14.63;;;;;;;;;;5041919;28;20175;-54
2022/03/03 12:29:39;;;;;;;63.17;11.17;;;;;;;;;;5033591;28;20183;-54
2022/03/03 12:32:24;;;;;;;50.80;9.50;;;;;;;;;;5049159;28;20797;-55
2022/03/03 12:34:50;;;;;;;99.07;16.83;;;;;;;;;;5044720;28;20223;-54
2022/03/03 12:37:17;;;;;;;103.53;17.90;;;;;;;;;;5030084;28;20179;-54
2022/03/03 12:39:48;;;;;;;75.47;13.03;;;;;;;;;;5045265;28;20186;-53
2022/03/03 12:42:18;;;;;;;113.90;19.30;;;;;;;;;;5045435;28;20658;-54
2022/03/03 12:44:49;;;;;;;80.80;13.77;;;;;;;;;;5037724;28;20215;-55
2022/03/03 12:47:15;;;;;;;62.07;10.70;;;;;;;;;;5047702;28;20183;-54
2022/03/03 12:49:41;;;;;;;86.87;14.07;;;;;;;;;;5043787;28;20260;-53
2022/03/03 12:52:07;;;;;;;38.77;6.97;;;;;;;;;;5051172;28;20193;-54
2022/03/03 12:54:36;;;;;;;59.07;10.07;;;;;;;;;;5044695;28;20710;-53
2022/03/03 12:57:07;;;;;;;61.90;11.27;;;;;;;;;;5048759;28;20263;-53
2022/03/03 12:59:33;;;;;;;74.23;12.73;;;;;;;;;;5043943;28;20592;-53
2022/03/03 13:02:00;;;;;;;91.30;15.43;;;;;;;;;;5045846;28;20202;-54
2022/03/03 13:04:26;;;;;;;80.60;13.87;;;;;;;;;;5036416;28;20234;-53
2022/03/03 13:07:06;;;;;;;37.40;7.60;;;;;;;;;;5053318;28;20331;-55
2022/03/03 13:09:33;;;;;;;66.37;12.10;;;;;;;;;;5045228;28;21001;-54
2022/03/03 13:11:59;;;;;;;76.47;12.97;;;;;;;;;;5048225;28;20179;-54
2022/03/03 13:14:25;;;;;;;69.00;11.87;;;;;;;;;;5044154;28;20329;-53
2022/03/03 13:16:50;;;;;;;96.73;16.63;;;;;;;;;;5047576;28;20183;-54
2022/03/03 13:19:16;;;;;;;95.10;16.50;;;;;;;;;;5034963;28;20821;-54
2022/03/03 13:21:43;;;;;;;67.30;12.17;;;;;;;;;;5039710;28;20204;-54
2022/03/03 13:24:10;;;;;;;83.03;14.23;;;;;;;;;;5047009;28;20231;-54
2022/03/03 13:26:43;;;;;;;80.87;13.53;;;;;;;;;;5060855;28;20240;-54
2022/03/03 13:29:18;;;;;;;77.13;13.03;;;;;;;;;;5037133;28;20178;-53
2022/03/03 13:31:46;;;;;;;87.63;15.63;;;;;;;;;;5054682;28;20653;-55
2022/03/03 13:34:22;;;;;;;60.27;10.93;;;;;;;;;;5046527;28;20221;-55
2022/03/03 13:36:49;;;;;;;65.87;11.67;;;;;;;;;;5028825;28;21058;-55
2022/03/03 13:39:20;;;;;;;57.93;10.07;;;;;;;;;;5055538;28;20183;-55
2022/03/03 13:41:46;;;;;;;45.00;8.27;;;;;;;;;;5051680;28;20180;-55
2022/03/03 13:44:22;;;;;;;85.13;14.77;;;;;;;;;;5043474;28;20565;-54
2022/03/03 13:46:58;;;;;;;69.37;12.57;;;;;;;;;;5036571;28;20220;-55
2022/03/03 13:49:25;;;;;;;71.43;12.70;;;;;;;;;;5055855;28;20178;-54
2022/03/03 13:52:12;;;;;;;65.87;11.60;;;;;;;;;;5030987;28;20302;-55
2022/03/03 13:54:50;;;;;;;71.33;12.53;;;;;;;;;;5054554;28;20623;-54
2022/03/03 13:57:35;;;;;;;54.87;9.47;;;;;;;;;;5050187;28;20182;-55
2022/03/03 14:00:01;;;;;;;101.97;17.40;;;;;;;;;;5041157;28;20278;-54
2022/03/03 14:02:27;;;;;;;48.93;9.30;;;;;;;;;;5049241;28;20191;-55
2022/03/03 14:04:57;;;;;;;55.70;10.17;;;;;;;;;;5057861;28;20225;-54
2022/03/03 14:07:28;;;;;;;60.13;10.23;;;;;;;;;;5050666;28;20599;-55
2022/03/03 14:10:01;;;;;;;52.90;9.30;;;;;;;;;;5044021;28;20325;-56
2022/03/03 14:12:27;;;;;;;76.83;13.57;;;;;;;;;;5042476;28;20870;-55
2022/03/03 14:14:53;;;;;;;66.37;12.43;;;;;;;;;;5041624;28;20234;-53
2022/03/03 14:17:19;;;;;;;59.83;10.87;;;;;;;;;;5049555;28;20234;-53
2022/03/03 14:19:46;;;;;;;76.40;13.80;;;;;;;;;;5038581;28;20277;-53
2022/03/03 14:22:16;;;;;;;63.03;11.30;;;;;;;;;;5036522;28;20418;-55
2022/03/03 14:24:42;;;;;;;59.73;10.80;;;;;;;;;;5054155;28;20673;-54
2022/03/03 14:27:08;;;;;;;131.07;21.07;;;;;;;;;;5053779;28;20268;-54
2022/03/03 14:29:34;;;;;;;81.90;13.90;;;;;;;;;;5042406;28;20286;-54